sensor_id;sensor_type;location;lat;lon;timestamp;P1;durP1;ratioP1;P2;durP2;ratioP2
24619;SDS011;12763;55.802;37.404;2023-12-22T00:01:33;13.20;;;6.38;;
24619;SDS011;12763;55.802;37.404;2023-12-22T00:04:01;12.40;;;5.72;;
24619;SDS011;12763;55.802;37.404;2023-12-22T00:06:27;14.73;;;6.20;;
24619;SDS011;12763;55.802;37.404;2023-12-22T00:08:53;12.50;;;6.35;;
24619;SDS011;12763;55.802;37.404;2023-12-22T00:11:18;10.65;;;6.22;;
24619;SDS011;12763;55.802;37.404;2023-12-22T00:13:44;12.02;;;6.07;;
24619;SDS011;12763;55.802;37.404;2023-12-22T00:16:10;17.23;;;6.90;;
24619;SDS011;12763;55.802;37.404;2023-12-22T00:18:37;12.05;;;5.68;;
24619;SDS011;12763;55.802;37.404;2023-12-22T00:21:03;13.15;;;6.53;;
24619;SDS011;12763;55.802;37.404;2023-12-22T00:23:29;10.40;;;4.35;;
24619;SDS011;12763;55.802;37.404;2023-12-22T00:25:55;14.20;;;5.60;;
24619;SDS011;12763;55.802;37.404;2023-12-22T00:28:21;11.88;;;5.57;;
24619;SDS011;12763;55.802;37.404;2023-12-22T00:30:47;11.80;;;5.43;;
24619;SDS011;12763;55.802;37.404;2023-12-22T00:33:13;11.05;;;5.70;;
24619;SDS011;12763;55.802;37.404;2023-12-22T00:35:40;9.27;;;5.30;;
24619;SDS011;12763;55.802;37.404;2023-12-22T00:38:06;12.57;;;5.68;;
24619;SDS011;12763;55.802;37.404;2023-12-22T00:40:32;11.57;;;5.38;;
24619;SDS011;12763;55.802;37.404;2023-12-22T00:42:58;11.65;;;5.90;;
24619;SDS011;12763;55.802;37.404;2023-12-22T00:45:24;9.38;;;4.90;;
24619;SDS011;12763;55.802;37.404;2023-12-22T00:47:50;15.40;;;5.95;;
24619;SDS011;12763;55.802;37.404;2023-12-22T00:50:15;10.43;;;5.13;;
24619;SDS011;12763;55.802;37.404;2023-12-22T00:52:41;9.85;;;4.40;;
24619;SDS011;12763;55.802;37.404;2023-12-22T00:55:07;13.02;;;5.28;;
24619;SDS011;12763;55.802;37.404;2023-12-22T00:57:33;9.23;;;4.85;;
24619;SDS011;12763;55.802;37.404;2023-12-22T00:59:59;9.95;;;5.45;;
24619;SDS011;12763;55.802;37.404;2023-12-22T01:02:25;11.40;;;5.30;;
24619;SDS011;12763;55.802;37.404;2023-12-22T01:04:51;10.45;;;4.85;;
24619;SDS011;12763;55.802;37.404;2023-12-22T01:07:17;14.73;;;5.45;;
24619;SDS011;12763;55.802;37.404;2023-12-22T01:09:44;13.60;;;5.38;;
24619;SDS011;12763;55.802;37.404;2023-12-22T01:12:10;11.15;;;5.68;;
24619;SDS011;12763;55.802;37.404;2023-12-22T01:14:36;10.30;;;5.43;;
24619;SDS011;12763;55.802;37.404;2023-12-22T01:17:02;9.77;;;4.82;;
24619;SDS011;12763;55.802;37.404;2023-12-22T01:19:28;11.65;;;5.07;;
24619;SDS011;12763;55.802;37.404;2023-12-22T01:21:54;14.18;;;5.43;;
24619;SDS011;12763;55.802;37.404;2023-12-22T01:24:20;12.82;;;5.93;;
24619;SDS011;12763;55.802;37.404;2023-12-22T01:26:46;13.35;;;6.70;;
24619;SDS011;12763;55.802;37.404;2023-12-22T01:29:12;15.45;;;6.63;;
24619;SDS011;12763;55.802;37.404;2023-12-22T01:31:38;14.98;;;6.82;;
24619;SDS011;12763;55.802;37.404;2023-12-22T01:34:04;11.63;;;6.18;;
24619;SDS011;12763;55.802;37.404;2023-12-22T01:36:30;15.10;;;7.15;;
24619;SDS011;12763;55.802;37.404;2023-12-22T01:38:56;11.55;;;5.97;;
24619;SDS011;12763;55.802;37.404;2023-12-22T01:41:22;13.02;;;5.78;;
24619;SDS011;12763;55.802;37.404;2023-12-22T01:43:48;13.68;;;6.28;;
24619;SDS011;12763;55.802;37.404;2023-12-22T01:46:14;19.63;;;6.93;;
24619;SDS011;12763;55.802;37.404;2023-12-22T01:48:40;13.23;;;6.32;;
24619;SDS011;12763;55.802;37.404;2023-12-22T01:51:06;13.63;;;6.63;;
24619;SDS011;12763;55.802;37.404;2023-12-22T01:53:32;13.52;;;6.47;;
24619;SDS011;12763;55.802;37.404;2023-12-22T01:55:59;15.52;;;6.72;;
24619;SDS011;12763;55.802;37.404;2023-12-22T01:58:27;13.90;;;6.53;;
24619;SDS011;12763;55.802;37.404;2023-12-22T02:01:03;15.52;;;6.97;;
24619;SDS011;12763;55.802;37.404;2023-12-22T02:03:32;15.02;;;6.45;;
24619;SDS011;12763;55.802;37.404;2023-12-22T02:05:58;16.98;;;7.32;;
24619;SDS011;12763;55.802;37.404;2023-12-22T02:08:25;16.40;;;6.32;;
24619;SDS011;12763;55.802;37.404;2023-12-22T02:10:53;12.25;;;6.13;;
24619;SDS011;12763;55.802;37.404;2023-12-22T02:13:19;14.93;;;6.30;;
24619;SDS011;12763;55.802;37.404;2023-12-22T02:15:46;14.27;;;5.90;;
24619;SDS011;12763;55.802;37.404;2023-12-22T02:18:21;11.20;;;5.80;;
24619;SDS011;12763;55.802;37.404;2023-12-22T02:20:55;17.73;;;7.65;;
24619;SDS011;12763;55.802;37.404;2023-12-22T02:23:21;11.90;;;6.00;;
24619;SDS011;12763;55.802;37.404;2023-12-22T02:25:49;18.48;;;8.00;;
24619;SDS011;12763;55.802;37.404;2023-12-22T02:33:38;14.95;;;7.30;;
24619;SDS011;12763;55.802;37.404;2023-12-22T02:36:06;17.23;;;7.63;;
24619;SDS011;12763;55.802;37.404;2023-12-22T02:38:35;15.20;;;7.65;;
24619;SDS011;12763;55.802;37.404;2023-12-22T02:41:03;12.35;;;6.30;;
24619;SDS011;12763;55.802;37.404;2023-12-22T02:43:29;15.07;;;6.55;;
24619;SDS011;12763;55.802;37.404;2023-12-22T02:45:55;16.35;;;7.38;;
24619;SDS011;12763;55.802;37.404;2023-12-22T02:48:21;16.50;;;7.55;;
24619;SDS011;12763;55.802;37.404;2023-12-22T02:50:47;18.85;;;7.75;;
24619;SDS011;12763;55.802;37.404;2023-12-22T02:53:13;15.60;;;7.90;;
24619;SDS011;12763;55.802;37.404;2023-12-22T02:55:39;16.65;;;6.70;;
24619;SDS011;12763;55.802;37.404;2023-12-22T02:58:05;12.52;;;5.97;;
24619;SDS011;12763;55.802;37.404;2023-12-22T03:00:31;13.25;;;6.13;;
24619;SDS011;12763;55.802;37.404;2023-12-22T03:02:57;12.45;;;5.78;;
24619;SDS011;12763;55.802;37.404;2023-12-22T03:05:23;13.27;;;5.60;;
24619;SDS011;12763;55.802;37.404;2023-12-22T03:07:49;13.43;;;6.70;;
24619;SDS011;12763;55.802;37.404;2023-12-22T03:10:14;12.65;;;6.13;;
24619;SDS011;12763;55.802;37.404;2023-12-22T03:12:40;14.82;;;6.00;;
24619;SDS011;12763;55.802;37.404;2023-12-22T03:15:06;11.65;;;6.05;;
24619;SDS011;12763;55.802;37.404;2023-12-22T03:17:33;11.60;;;5.85;;
24619;SDS011;12763;55.802;37.404;2023-12-22T03:19:58;13.57;;;6.03;;
24619;SDS011;12763;55.802;37.404;2023-12-22T03:22:24;13.45;;;5.47;;
24619;SDS011;12763;55.802;37.404;2023-12-22T03:24:50;11.95;;;6.13;;
24619;SDS011;12763;55.802;37.404;2023-12-22T03:27:16;12.88;;;6.53;;
24619;SDS011;12763;55.802;37.404;2023-12-22T03:29:43;10.88;;;5.63;;
24619;SDS011;12763;55.802;37.404;2023-12-22T03:32:10;11.15;;;5.97;;
24619;SDS011;12763;55.802;37.404;2023-12-22T03:34:36;12.75;;;6.10;;
24619;SDS011;12763;55.802;37.404;2023-12-22T03:37:02;14.05;;;6.30;;
24619;SDS011;12763;55.802;37.404;2023-12-22T03:39:29;13.48;;;6.15;;
24619;SDS011;12763;55.802;37.404;2023-12-22T03:41:54;13.18;;;6.75;;
24619;SDS011;12763;55.802;37.404;2023-12-22T03:44:20;12.05;;;6.75;;
24619;SDS011;12763;55.802;37.404;2023-12-22T03:46:46;14.55;;;7.15;;
24619;SDS011;12763;55.802;37.404;2023-12-22T03:49:13;12.85;;;6.90;;
24619;SDS011;12763;55.802;37.404;2023-12-22T03:51:38;13.95;;;6.63;;
24619;SDS011;12763;55.802;37.404;2023-12-22T03:54:07;11.82;;;6.00;;
24619;SDS011;12763;55.802;37.404;2023-12-22T03:56:33;11.63;;;6.45;;
24619;SDS011;12763;55.802;37.404;2023-12-22T03:58:59;12.48;;;6.28;;
24619;SDS011;12763;55.802;37.404;2023-12-22T04:01:25;15.43;;;7.50;;
24619;SDS011;12763;55.802;37.404;2023-12-22T04:03:51;13.07;;;6.45;;
24619;SDS011;12763;55.802;37.404;2023-12-22T04:06:17;12.30;;;5.97;;
24619;SDS011;12763;55.802;37.404;2023-12-22T04:08:43;12.68;;;7.25;;
24619;SDS011;12763;55.802;37.404;2023-12-22T04:11:09;13.65;;;6.90;;
24619;SDS011;12763;55.802;37.404;2023-12-22T04:13:35;15.02;;;7.28;;
24619;SDS011;12763;55.802;37.404;2023-12-22T04:16:01;17.67;;;7.20;;
24619;SDS011;12763;55.802;37.404;2023-12-22T04:18:30;16.85;;;7.07;;
24619;SDS011;12763;55.802;37.404;2023-12-22T04:20:57;24.92;;;7.47;;
24619;SDS011;12763;55.802;37.404;2023-12-22T04:23:23;15.85;;;6.15;;
24619;SDS011;12763;55.802;37.404;2023-12-22T04:25:49;15.57;;;7.00;;
24619;SDS011;12763;55.802;37.404;2023-12-22T04:28:15;15.38;;;6.43;;
24619;SDS011;12763;55.802;37.404;2023-12-22T04:30:42;13.50;;;6.03;;
24619;SDS011;12763;55.802;37.404;2023-12-22T04:33:07;17.52;;;6.85;;
24619;SDS011;12763;55.802;37.404;2023-12-22T04:35:33;14.98;;;6.63;;
24619;SDS011;12763;55.802;37.404;2023-12-22T04:38:00;16.85;;;7.43;;
24619;SDS011;12763;55.802;37.404;2023-12-22T04:40:26;15.30;;;6.85;;
24619;SDS011;12763;55.802;37.404;2023-12-22T04:42:53;17.15;;;6.55;;
24619;SDS011;12763;55.802;37.404;2023-12-22T04:45:20;14.80;;;6.38;;
24619;SDS011;12763;55.802;37.404;2023-12-22T04:47:46;14.45;;;6.32;;
24619;SDS011;12763;55.802;37.404;2023-12-22T04:50:12;15.20;;;6.93;;
24619;SDS011;12763;55.802;37.404;2023-12-22T04:52:38;17.17;;;6.95;;
24619;SDS011;12763;55.802;37.404;2023-12-22T04:55:04;14.43;;;6.00;;
24619;SDS011;12763;55.802;37.404;2023-12-22T04:57:30;14.55;;;6.47;;
24619;SDS011;12763;55.802;37.404;2023-12-22T04:59:56;13.57;;;7.10;;
24619;SDS011;12763;55.802;37.404;2023-12-22T05:02:22;14.43;;;7.05;;
24619;SDS011;12763;55.802;37.404;2023-12-22T05:04:50;15.60;;;7.20;;
24619;SDS011;12763;55.802;37.404;2023-12-22T05:07:16;17.33;;;7.20;;
24619;SDS011;12763;55.802;37.404;2023-12-22T05:09:42;12.07;;;6.32;;
24619;SDS011;12763;55.802;37.404;2023-12-22T05:12:09;14.98;;;6.18;;
24619;SDS011;12763;55.802;37.404;2023-12-22T05:14:35;20.30;;;7.20;;
24619;SDS011;12763;55.802;37.404;2023-12-22T05:17:01;12.95;;;6.22;;
24619;SDS011;12763;55.802;37.404;2023-12-22T05:19:27;14.50;;;7.05;;
24619;SDS011;12763;55.802;37.404;2023-12-22T05:21:53;18.63;;;7.20;;
24619;SDS011;12763;55.802;37.404;2023-12-22T05:24:21;14.65;;;7.00;;
24619;SDS011;12763;55.802;37.404;2023-12-22T05:26:48;13.68;;;6.18;;
24619;SDS011;12763;55.802;37.404;2023-12-22T05:29:14;14.85;;;6.95;;
24619;SDS011;12763;55.802;37.404;2023-12-22T05:31:41;15.57;;;7.25;;
24619;SDS011;12763;55.802;37.404;2023-12-22T05:34:07;15.48;;;6.80;;
24619;SDS011;12763;55.802;37.404;2023-12-22T05:36:36;16.42;;;7.70;;
24619;SDS011;12763;55.802;37.404;2023-12-22T05:39:02;17.67;;;7.90;;
24619;SDS011;12763;55.802;37.404;2023-12-22T05:41:28;16.55;;;6.97;;
24619;SDS011;12763;55.802;37.404;2023-12-22T05:43:54;12.70;;;6.53;;
24619;SDS011;12763;55.802;37.404;2023-12-22T05:46:20;13.77;;;7.57;;
24619;SDS011;12763;55.802;37.404;2023-12-22T05:48:46;14.10;;;6.82;;
24619;SDS011;12763;55.802;37.404;2023-12-22T05:51:12;16.88;;;7.38;;
24619;SDS011;12763;55.802;37.404;2023-12-22T05:53:39;16.05;;;7.70;;
24619;SDS011;12763;55.802;37.404;2023-12-22T05:56:22;14.65;;;7.53;;
24619;SDS011;12763;55.802;37.404;2023-12-22T05:58:49;17.67;;;8.00;;
24619;SDS011;12763;55.802;37.404;2023-12-22T06:01:18;18.65;;;7.50;;
24619;SDS011;12763;55.802;37.404;2023-12-22T06:03:45;16.40;;;7.75;;
24619;SDS011;12763;55.802;37.404;2023-12-22T06:06:12;15.23;;;8.13;;
24619;SDS011;12763;55.802;37.404;2023-12-22T06:08:38;20.02;;;8.80;;
24619;SDS011;12763;55.802;37.404;2023-12-22T06:11:05;19.27;;;7.78;;
24619;SDS011;12763;55.802;37.404;2023-12-22T06:13:31;17.25;;;8.25;;
24619;SDS011;12763;55.802;37.404;2023-12-22T06:15:57;18.48;;;9.88;;
24619;SDS011;12763;55.802;37.404;2023-12-22T06:18:24;17.13;;;8.02;;
24619;SDS011;12763;55.802;37.404;2023-12-22T06:20:50;23.73;;;9.82;;
24619;SDS011;12763;55.802;37.404;2023-12-22T06:23:16;18.33;;;8.75;;
24619;SDS011;12763;55.802;37.404;2023-12-22T06:25:42;16.45;;;8.38;;
24619;SDS011;12763;55.802;37.404;2023-12-22T06:28:08;21.40;;;10.40;;
24619;SDS011;12763;55.802;37.404;2023-12-22T06:30:34;20.77;;;9.15;;
24619;SDS011;12763;55.802;37.404;2023-12-22T06:33:01;22.08;;;9.35;;
24619;SDS011;12763;55.802;37.404;2023-12-22T06:35:27;20.48;;;10.15;;
24619;SDS011;12763;55.802;37.404;2023-12-22T06:37:53;26.05;;;11.02;;
24619;SDS011;12763;55.802;37.404;2023-12-22T06:40:21;19.77;;;9.98;;
24619;SDS011;12763;55.802;37.404;2023-12-22T06:42:47;24.67;;;9.93;;
24619;SDS011;12763;55.802;37.404;2023-12-22T06:45:16;28.13;;;10.95;;
24619;SDS011;12763;55.802;37.404;2023-12-22T06:48:06;22.60;;;11.07;;
24619;SDS011;12763;55.802;37.404;2023-12-22T06:50:51;27.90;;;10.35;;
24619;SDS011;12763;55.802;37.404;2023-12-22T06:53:17;20.48;;;9.23;;
24619;SDS011;12763;55.802;37.404;2023-12-22T06:55:43;22.17;;;10.35;;
24619;SDS011;12763;55.802;37.404;2023-12-22T06:58:10;28.00;;;10.98;;
24619;SDS011;12763;55.802;37.404;2023-12-22T07:00:36;36.45;;;12.27;;
24619;SDS011;12763;55.802;37.404;2023-12-22T07:03:03;25.27;;;10.73;;
24619;SDS011;12763;55.802;37.404;2023-12-22T07:05:29;26.33;;;11.90;;
24619;SDS011;12763;55.802;37.404;2023-12-22T07:07:55;30.95;;;11.90;;
24619;SDS011;12763;55.802;37.404;2023-12-22T07:10:21;23.40;;;11.93;;
24619;SDS011;12763;55.802;37.404;2023-12-22T07:12:47;26.65;;;11.75;;
24619;SDS011;12763;55.802;37.404;2023-12-22T07:15:13;23.33;;;10.43;;
24619;SDS011;12763;55.802;37.404;2023-12-22T07:17:39;29.85;;;11.82;;
24619;SDS011;12763;55.802;37.404;2023-12-22T07:20:05;25.60;;;12.35;;
24619;SDS011;12763;55.802;37.404;2023-12-22T07:22:32;25.05;;;11.45;;
24619;SDS011;12763;55.802;37.404;2023-12-22T07:24:58;25.05;;;11.55;;
24619;SDS011;12763;55.802;37.404;2023-12-22T07:27:24;22.67;;;11.05;;
24619;SDS011;12763;55.802;37.404;2023-12-22T07:29:51;27.58;;;11.85;;
24619;SDS011;12763;55.802;37.404;2023-12-22T07:32:17;25.20;;;11.63;;
24619;SDS011;12763;55.802;37.404;2023-12-22T07:34:46;35.10;;;11.75;;
24619;SDS011;12763;55.802;37.404;2023-12-22T07:37:12;29.42;;;11.80;;
24619;SDS011;12763;55.802;37.404;2023-12-22T07:39:38;26.80;;;11.88;;
24619;SDS011;12763;55.802;37.404;2023-12-22T07:42:04;25.80;;;11.73;;
24619;SDS011;12763;55.802;37.404;2023-12-22T07:44:32;31.15;;;11.70;;
24619;SDS011;12763;55.802;37.404;2023-12-22T07:46:58;24.38;;;10.75;;
24619;SDS011;12763;55.802;37.404;2023-12-22T07:49:26;24.42;;;11.45;;
24619;SDS011;12763;55.802;37.404;2023-12-22T07:51:53;23.80;;;12.07;;
24619;SDS011;12763;55.802;37.404;2023-12-22T07:54:19;25.35;;;12.27;;
24619;SDS011;12763;55.802;37.404;2023-12-22T07:56:45;20.48;;;10.65;;
24619;SDS011;12763;55.802;37.404;2023-12-22T07:59:11;23.35;;;11.38;;
24619;SDS011;12763;55.802;37.404;2023-12-22T08:01:37;23.02;;;11.70;;
24619;SDS011;12763;55.802;37.404;2023-12-22T08:04:03;25.35;;;12.48;;
24619;SDS011;12763;55.802;37.404;2023-12-22T08:06:30;21.92;;;11.57;;
24619;SDS011;12763;55.802;37.404;2023-12-22T08:08:56;21.38;;;10.75;;
24619;SDS011;12763;55.802;37.404;2023-12-22T08:11:23;24.98;;;11.52;;
24619;SDS011;12763;55.802;37.404;2023-12-22T08:13:51;21.38;;;11.18;;
24619;SDS011;12763;55.802;37.404;2023-12-22T08:16:19;23.05;;;11.32;;
24619;SDS011;12763;55.802;37.404;2023-12-22T08:18:45;23.77;;;10.13;;
24619;SDS011;12763;55.802;37.404;2023-12-22T08:21:11;23.15;;;10.70;;
24619;SDS011;12763;55.802;37.404;2023-12-22T08:23:37;20.77;;;9.32;;
24619;SDS011;12763;55.802;37.404;2023-12-22T08:26:03;18.27;;;9.27;;
24619;SDS011;12763;55.802;37.404;2023-12-22T08:28:29;16.23;;;8.57;;
24619;SDS011;12763;55.802;37.404;2023-12-22T08:30:55;16.42;;;8.40;;
24619;SDS011;12763;55.802;37.404;2023-12-22T08:33:24;16.50;;;8.65;;
24619;SDS011;12763;55.802;37.404;2023-12-22T08:35:50;16.95;;;7.43;;
24619;SDS011;12763;55.802;37.404;2023-12-22T08:38:16;16.35;;;7.47;;
24619;SDS011;12763;55.802;37.404;2023-12-22T08:40:42;15.35;;;7.40;;
24619;SDS011;12763;55.802;37.404;2023-12-22T08:43:08;14.18;;;7.72;;
24619;SDS011;12763;55.802;37.404;2023-12-22T08:45:34;13.90;;;7.65;;
24619;SDS011;12763;55.802;37.404;2023-12-22T08:48:01;14.98;;;7.15;;
24619;SDS011;12763;55.802;37.404;2023-12-22T08:50:27;13.73;;;7.07;;
24619;SDS011;12763;55.802;37.404;2023-12-22T08:52:53;16.98;;;7.60;;
24619;SDS011;12763;55.802;37.404;2023-12-22T08:55:19;16.60;;;8.05;;
24619;SDS011;12763;55.802;37.404;2023-12-22T08:57:45;17.65;;;7.20;;
24619;SDS011;12763;55.802;37.404;2023-12-22T09:00:11;17.17;;;7.32;;
24619;SDS011;12763;55.802;37.404;2023-12-22T09:02:38;12.20;;;6.85;;
24619;SDS011;12763;55.802;37.404;2023-12-22T09:05:04;19.48;;;8.07;;
24619;SDS011;12763;55.802;37.404;2023-12-22T09:07:32;15.60;;;7.40;;
24619;SDS011;12763;55.802;37.404;2023-12-22T09:09:58;12.48;;;6.75;;
24619;SDS011;12763;55.802;37.404;2023-12-22T09:12:24;16.80;;;7.82;;
24619;SDS011;12763;55.802;37.404;2023-12-22T09:14:51;15.18;;;7.30;;
24619;SDS011;12763;55.802;37.404;2023-12-22T09:17:17;13.40;;;6.70;;
24619;SDS011;12763;55.802;37.404;2023-12-22T09:19:43;14.30;;;7.13;;
24619;SDS011;12763;55.802;37.404;2023-12-22T09:22:09;10.88;;;6.22;;
24619;SDS011;12763;55.802;37.404;2023-12-22T09:24:35;16.00;;;7.45;;
24619;SDS011;12763;55.802;37.404;2023-12-22T09:27:02;16.60;;;6.65;;
24619;SDS011;12763;55.802;37.404;2023-12-22T09:29:31;13.93;;;7.05;;
24619;SDS011;12763;55.802;37.404;2023-12-22T09:31:59;12.32;;;7.20;;
24619;SDS011;12763;55.802;37.404;2023-12-22T09:34:26;18.02;;;8.18;;
24619;SDS011;12763;55.802;37.404;2023-12-22T09:36:54;14.18;;;6.95;;
24619;SDS011;12763;55.802;37.404;2023-12-22T09:39:20;15.43;;;7.55;;
24619;SDS011;12763;55.802;37.404;2023-12-22T09:41:47;13.98;;;7.53;;
24619;SDS011;12763;55.802;37.404;2023-12-22T09:44:19;17.08;;;8.05;;
24619;SDS011;12763;55.802;37.404;2023-12-22T09:46:49;18.30;;;8.40;;
24619;SDS011;12763;55.802;37.404;2023-12-22T09:49:19;18.85;;;8.52;;
24619;SDS011;12763;55.802;37.404;2023-12-22T09:51:46;15.13;;;8.20;;
24619;SDS011;12763;55.802;37.404;2023-12-22T09:54:14;17.92;;;8.10;;
24619;SDS011;12763;55.802;37.404;2023-12-22T09:56:40;16.75;;;8.40;;
24619;SDS011;12763;55.802;37.404;2023-12-22T09:59:12;19.52;;;8.95;;
24619;SDS011;12763;55.802;37.404;2023-12-22T10:01:42;18.30;;;8.60;;
24619;SDS011;12763;55.802;37.404;2023-12-22T10:04:12;22.15;;;10.70;;
24619;SDS011;12763;55.802;37.404;2023-12-22T10:06:39;20.27;;;10.20;;
24619;SDS011;12763;55.802;37.404;2023-12-22T10:09:06;25.52;;;11.52;;
24619;SDS011;12763;55.802;37.404;2023-12-22T10:11:35;21.85;;;10.77;;
24619;SDS011;12763;55.802;37.404;2023-12-22T10:14:04;21.35;;;11.43;;
24619;SDS011;12763;55.802;37.404;2023-12-22T10:16:32;22.70;;;10.57;;
24619;SDS011;12763;55.802;37.404;2023-12-22T10:18:58;30.90;;;13.00;;
24619;SDS011;12763;55.802;37.404;2023-12-22T10:21:25;24.25;;;12.00;;
24619;SDS011;12763;55.802;37.404;2023-12-22T10:23:51;26.17;;;11.88;;
24619;SDS011;12763;55.802;37.404;2023-12-22T10:26:17;27.60;;;12.13;;
24619;SDS011;12763;55.802;37.404;2023-12-22T10:28:43;28.10;;;12.43;;
24619;SDS011;12763;55.802;37.404;2023-12-22T10:31:13;25.02;;;12.63;;
24619;SDS011;12763;55.802;37.404;2023-12-22T10:33:39;29.02;;;11.95;;
24619;SDS011;12763;55.802;37.404;2023-12-22T10:36:05;27.88;;;12.15;;
24619;SDS011;12763;55.802;37.404;2023-12-22T10:38:33;23.50;;;12.25;;
24619;SDS011;12763;55.802;37.404;2023-12-22T10:41:02;27.25;;;12.45;;
24619;SDS011;12763;55.802;37.404;2023-12-22T10:43:29;30.77;;;12.57;;
24619;SDS011;12763;55.802;37.404;2023-12-22T10:45:55;26.23;;;11.38;;
24619;SDS011;12763;55.802;37.404;2023-12-22T10:48:24;25.50;;;11.68;;
24619;SDS011;12763;55.802;37.404;2023-12-22T10:50:50;27.98;;;12.60;;
24619;SDS011;12763;55.802;37.404;2023-12-22T10:53:16;28.88;;;13.63;;
24619;SDS011;12763;55.802;37.404;2023-12-22T10:55:42;30.05;;;13.15;;
24619;SDS011;12763;55.802;37.404;2023-12-22T10:58:08;26.33;;;11.93;;
24619;SDS011;12763;55.802;37.404;2023-12-22T11:00:36;25.92;;;11.55;;
24619;SDS011;12763;55.802;37.404;2023-12-22T11:03:06;26.80;;;12.07;;
24619;SDS011;12763;55.802;37.404;2023-12-22T11:05:34;30.77;;;12.93;;
24619;SDS011;12763;55.802;37.404;2023-12-22T11:08:02;29.05;;;11.68;;
24619;SDS011;12763;55.802;37.404;2023-12-22T11:10:30;29.50;;;12.52;;
24619;SDS011;12763;55.802;37.404;2023-12-22T11:12:57;25.73;;;10.23;;
24619;SDS011;12763;55.802;37.404;2023-12-22T11:15:24;18.25;;;9.48;;
24619;SDS011;12763;55.802;37.404;2023-12-22T11:17:52;27.73;;;11.23;;
24619;SDS011;12763;55.802;37.404;2023-12-22T11:20:22;19.35;;;9.60;;
24619;SDS011;12763;55.802;37.404;2023-12-22T11:22:49;22.33;;;10.00;;
24619;SDS011;12763;55.802;37.404;2023-12-22T11:25:17;19.70;;;9.73;;
24619;SDS011;12763;55.802;37.404;2023-12-22T11:27:44;19.92;;;9.98;;
24619;SDS011;12763;55.802;37.404;2023-12-22T11:30:14;18.02;;;9.48;;
24619;SDS011;12763;55.802;37.404;2023-12-22T11:32:40;20.30;;;10.00;;
24619;SDS011;12763;55.802;37.404;2023-12-22T11:35:07;17.77;;;9.50;;
24619;SDS011;12763;55.802;37.404;2023-12-22T11:37:35;17.95;;;9.27;;
24619;SDS011;12763;55.802;37.404;2023-12-22T11:40:02;16.85;;;8.82;;
24619;SDS011;12763;55.802;37.404;2023-12-22T11:42:30;24.23;;;9.82;;
24619;SDS011;12763;55.802;37.404;2023-12-22T11:45:02;20.63;;;8.60;;
24619;SDS011;12763;55.802;37.404;2023-12-22T11:47:31;18.52;;;9.63;;
24619;SDS011;12763;55.802;37.404;2023-12-22T11:49:58;23.38;;;9.68;;
24619;SDS011;12763;55.802;37.404;2023-12-22T11:52:25;19.42;;;9.20;;
24619;SDS011;12763;55.802;37.404;2023-12-22T11:54:55;21.73;;;9.05;;
24619;SDS011;12763;55.802;37.404;2023-12-22T11:59:57;18.13;;;9.35;;
24619;SDS011;12763;55.802;37.404;2023-12-22T12:02:40;19.00;;;8.35;;
24619;SDS011;12763;55.802;37.404;2023-12-22T12:05:08;19.40;;;8.50;;
24619;SDS011;12763;55.802;37.404;2023-12-22T12:07:44;16.75;;;8.98;;
24619;SDS011;12763;55.802;37.404;2023-12-22T12:13:10;16.85;;;9.55;;
24619;SDS011;12763;55.802;37.404;2023-12-22T12:15:37;19.02;;;9.45;;
24619;SDS011;12763;55.802;37.404;2023-12-22T12:18:04;16.70;;;8.00;;
24619;SDS011;12763;55.802;37.404;2023-12-22T12:20:31;18.40;;;7.93;;
24619;SDS011;12763;55.802;37.404;2023-12-22T12:22:58;19.48;;;8.70;;
24619;SDS011;12763;55.802;37.404;2023-12-22T12:25:32;17.70;;;9.18;;
24619;SDS011;12763;55.802;37.404;2023-12-22T12:30:28;21.33;;;8.27;;
24619;SDS011;12763;55.802;37.404;2023-12-22T12:32:54;19.48;;;10.18;;
24619;SDS011;12763;55.802;37.404;2023-12-22T12:35:28;17.65;;;7.60;;
24619;SDS011;12763;55.802;37.404;2023-12-22T12:37:55;18.27;;;8.70;;
24619;SDS011;12763;55.802;37.404;2023-12-22T12:40:21;19.13;;;8.70;;
24619;SDS011;12763;55.802;37.404;2023-12-22T12:42:50;13.27;;;7.15;;
24619;SDS011;12763;55.802;37.404;2023-12-22T12:45:21;16.70;;;8.07;;
24619;SDS011;12763;55.802;37.404;2023-12-22T12:47:57;16.25;;;8.60;;
24619;SDS011;12763;55.802;37.404;2023-12-22T12:50:27;14.75;;;7.88;;
24619;SDS011;12763;55.802;37.404;2023-12-22T12:52:54;16.50;;;8.00;;
24619;SDS011;12763;55.802;37.404;2023-12-22T12:55:23;15.23;;;8.15;;
24619;SDS011;12763;55.802;37.404;2023-12-22T12:57:51;18.38;;;8.23;;
24619;SDS011;12763;55.802;37.404;2023-12-22T13:03:00;21.50;;;7.95;;
24619;SDS011;12763;55.802;37.404;2023-12-22T13:05:28;18.70;;;8.40;;
24619;SDS011;12763;55.802;37.404;2023-12-22T13:08:06;16.77;;;8.00;;
24619;SDS011;12763;55.802;37.404;2023-12-22T13:10:33;14.98;;;7.47;;
24619;SDS011;12763;55.802;37.404;2023-12-22T13:12:59;17.05;;;8.27;;
24619;SDS011;12763;55.802;37.404;2023-12-22T13:15:25;18.73;;;7.93;;
24619;SDS011;12763;55.802;37.404;2023-12-22T13:17:52;19.75;;;8.48;;
24619;SDS011;12763;55.802;37.404;2023-12-22T13:20:18;19.15;;;8.15;;
24619;SDS011;12763;55.802;37.404;2023-12-22T13:22:44;16.30;;;8.35;;
24619;SDS011;12763;55.802;37.404;2023-12-22T13:25:10;18.52;;;7.30;;
24619;SDS011;12763;55.802;37.404;2023-12-22T13:30:15;21.13;;;7.88;;
24619;SDS011;12763;55.802;37.404;2023-12-22T13:33:06;14.18;;;7.40;;
24619;SDS011;12763;55.802;37.404;2023-12-22T13:35:33;20.88;;;8.73;;
24619;SDS011;12763;55.802;37.404;2023-12-22T13:38:06;18.15;;;8.30;;
24619;SDS011;12763;55.802;37.404;2023-12-22T13:40:33;16.60;;;7.45;;
24619;SDS011;12763;55.802;37.404;2023-12-22T13:43:01;20.27;;;8.93;;
24619;SDS011;12763;55.802;37.404;2023-12-22T13:45:28;19.50;;;8.43;;
24619;SDS011;12763;55.802;37.404;2023-12-22T13:47:56;19.13;;;8.45;;
24619;SDS011;12763;55.802;37.404;2023-12-22T13:50:23;19.15;;;8.35;;
24619;SDS011;12763;55.802;37.404;2023-12-22T13:52:50;23.52;;;8.63;;
24619;SDS011;12763;55.802;37.404;2023-12-22T13:55:17;16.10;;;8.10;;
24619;SDS011;12763;55.802;37.404;2023-12-22T13:57:44;21.65;;;8.60;;
24619;SDS011;12763;55.802;37.404;2023-12-22T14:02:46;21.50;;;9.55;;
24619;SDS011;12763;55.802;37.404;2023-12-22T14:05:15;19.02;;;9.25;;
24619;SDS011;12763;55.802;37.404;2023-12-22T14:07:43;23.90;;;9.40;;
24619;SDS011;12763;55.802;37.404;2023-12-22T14:10:09;18.15;;;8.30;;
24619;SDS011;12763;55.802;37.404;2023-12-22T14:12:37;21.10;;;8.65;;
24619;SDS011;12763;55.802;37.404;2023-12-22T14:15:07;17.27;;;8.60;;
24619;SDS011;12763;55.802;37.404;2023-12-22T14:17:37;20.77;;;9.52;;
24619;SDS011;12763;55.802;37.404;2023-12-22T14:20:03;25.05;;;10.25;;
24619;SDS011;12763;55.802;37.404;2023-12-22T14:22:36;22.95;;;9.45;;
24619;SDS011;12763;55.802;37.404;2023-12-22T14:25:03;18.08;;;9.40;;
24619;SDS011;12763;55.802;37.404;2023-12-22T14:27:30;19.35;;;9.18;;
24619;SDS011;12763;55.802;37.404;2023-12-22T14:29:57;19.42;;;9.15;;
24619;SDS011;12763;55.802;37.404;2023-12-22T14:32:23;21.88;;;8.77;;
24619;SDS011;12763;55.802;37.404;2023-12-22T14:34:49;23.48;;;9.68;;
24619;SDS011;12763;55.802;37.404;2023-12-22T14:37:15;17.85;;;9.38;;
24619;SDS011;12763;55.802;37.404;2023-12-22T14:40:01;18.05;;;9.25;;